createdAt,value
2023-03-07T00:02:11.451Z,15.75
2023-03-07T00:04:46.792Z,17.17
2023-03-07T00:07:19.077Z,16.70
2023-03-07T00:09:51.186Z,15.45
2023-03-07T00:12:23.278Z,15.18
2023-03-07T00:14:55.991Z,16.55
2023-03-07T00:17:28.070Z,16.03
2023-03-07T00:20:00.079Z,15.35
2023-03-07T00:22:32.252Z,16.02
2023-03-07T00:25:05.160Z,15.02
2023-03-07T00:27:37.481Z,16.63
2023-03-07T00:30:12.544Z,15.05
2023-03-07T00:32:44.670Z,14.98
2023-03-07T00:35:16.802Z,15.45
2023-03-07T00:37:51.319Z,15.48
2023-03-07T00:40:26.293Z,16.15
2023-03-07T00:42:58.910Z,14.63
2023-03-07T00:45:30.956Z,14.57
2023-03-07T00:48:03.291Z,14.38
2023-03-07T00:50:35.894Z,13.63
2023-03-07T00:53:08.124Z,13.15
2023-03-07T00:55:40.608Z,13.68
2023-03-07T00:58:13.020Z,13.57
2023-03-07T01:01:41.994Z,13.65
2023-03-07T01:27:05.924Z,11.82
2023-03-07T01:31:33.485Z,12.25
2023-03-07T01:41:13.282Z,12.55
2023-03-07T01:45:07.843Z,10.02
2023-03-07T01:48:51.026Z,12.50
2023-03-07T01:53:03.644Z,11.30
2023-03-07T01:56:12.270Z,11.45
2023-03-07T02:06:27.690Z,12.15
2023-03-07T02:10:07.263Z,10.93
2023-03-07T02:14:25.880Z,11.43
2023-03-07T02:25:47.522Z,11.23
2023-03-07T02:29:54.047Z,10.65
2023-03-07T02:45:10.544Z,10.85
2023-03-07T02:52:34.672Z,10.68
2023-03-07T03:00:56.958Z,10.77
2023-03-07T03:16:35.213Z,10.82
2023-03-07T03:40:07.847Z,7.95
2023-03-07T03:57:41.404Z,10.50
2023-03-07T04:00:15.495Z,9.88
2023-03-07T04:02:48.205Z,9.65
2023-03-07T04:05:23.277Z,10.82
2023-03-07T04:07:55.244Z,10.05
2023-03-07T04:10:27.285Z,9.75
2023-03-07T04:12:59.335Z,10.60
2023-03-07T04:15:31.329Z,10.60
2023-03-07T04:18:03.399Z,10.98
2023-03-07T04:20:35.470Z,10.73
2023-03-07T04:23:07.707Z,10.23
2023-03-07T04:25:40.462Z,9.88
2023-03-07T04:28:12.757Z,10.38
2023-03-07T04:30:45.785Z,10.23
2023-03-07T04:33:20.004Z,9.93
2023-03-07T04:35:53.906Z,10.40
2023-03-07T04:38:26.189Z,11.63
2023-03-07T04:40:58.528Z,10.57
2023-03-07T04:43:30.549Z,9.68
2023-03-07T04:46:02.677Z,10.60
2023-03-07T04:48:35.132Z,11.55
2023-03-07T04:51:07.234Z,11.90
2023-03-07T04:53:39.426Z,11.68
2023-03-07T04:56:12.535Z,12.00
2023-03-07T04:58:45.657Z,12.30
2023-03-07T05:01:18.811Z,12.25
2023-03-07T05:03:51.981Z,12.38
2023-03-07T05:06:25.677Z,12.63
2023-03-07T05:08:58.001Z,12.02
2023-03-07T05:11:30.665Z,11.93
2023-03-07T05:14:02.938Z,11.90
2023-03-07T05:16:35.393Z,12.73
2023-03-07T05:19:08.740Z,15.13
2023-03-07T05:21:41.829Z,13.75
2023-03-07T05:24:14.221Z,14.45
2023-03-07T05:26:46.361Z,14.95
2023-03-07T05:29:18.388Z,14.60
2023-03-07T05:31:50.416Z,16.02
2023-03-07T05:34:22.613Z,15.35
2023-03-07T05:36:54.745Z,17.10
2023-03-07T05:39:27.845Z,20.23
2023-03-07T05:41:59.980Z,17.92
2023-03-07T05:44:34.188Z,17.83
2023-03-07T05:47:07.165Z,16.70
2023-03-07T05:49:39.557Z,17.88
2023-03-07T05:52:11.819Z,16.77
2023-03-07T05:54:43.921Z,19.67
2023-03-07T05:57:16.429Z,19.23
2023-03-07T05:59:48.515Z,19.40
2023-03-07T06:02:20.980Z,17.38
2023-03-07T06:04:53.479Z,16.95
2023-03-07T06:07:25.585Z,15.73
2023-03-07T06:09:58.415Z,14.65
2023-03-07T06:12:30.841Z,15.73
2023-03-07T06:15:03.548Z,14.90
2023-03-07T06:17:36.243Z,15.45
2023-03-07T06:20:10.267Z,14.93
2023-03-07T06:22:42.638Z,16.02
2023-03-07T06:25:16.968Z,16.58
2023-03-07T06:27:50.114Z,23.95
2023-03-07T06:30:22.461Z,21.00
2023-03-07T06:32:55.459Z,19.13
2023-03-07T06:35:28.452Z,21.33
2023-03-07T06:38:00.524Z,26.10
2023-03-07T06:40:33.324Z,15.40
2023-03-07T06:43:06.591Z,15.52
2023-03-07T06:45:38.639Z,14.98
2023-03-07T06:48:11.601Z,15.65
2023-03-07T06:50:46.457Z,14.07
2023-03-07T06:53:18.755Z,14.40
2023-03-07T06:55:51.891Z,15.93
2023-03-07T06:58:23.912Z,15.10
2023-03-07T07:00:56.631Z,15.40
2023-03-07T07:03:28.852Z,15.30
2023-03-07T07:06:03.171Z,16.00
2023-03-07T07:08:36.286Z,15.82
2023-03-07T07:11:08.659Z,14.32
2023-03-07T07:13:40.829Z,15.27
2023-03-07T07:16:14.195Z,15.10
2023-03-07T07:18:46.629Z,16.10
2023-03-07T07:21:19.104Z,15.68
2023-03-07T07:23:52.019Z,14.40
2023-03-07T07:26:25.084Z,16.20
2023-03-07T07:28:57.192Z,14.45
2023-03-07T07:31:29.393Z,15.77
2023-03-07T07:34:01.613Z,17.05
2023-03-07T07:36:35.436Z,15.15
2023-03-07T07:39:10.770Z,15.30
2023-03-07T07:41:46.472Z,16.30
2023-03-07T07:44:19.200Z,14.45
2023-03-07T07:46:59.035Z,16.58
2023-03-07T07:49:31.361Z,15.43
2023-03-07T07:52:03.804Z,14.82
2023-03-07T07:54:36.062Z,18.67
2023-03-07T07:57:08.130Z,17.88
2023-03-07T07:59:40.167Z,14.80
2023-03-07T08:02:16.291Z,14.67
2023-03-07T08:04:48.651Z,13.50
2023-03-07T08:07:20.772Z,14.73
2023-03-07T08:09:53.018Z,14.77
2023-03-07T08:12:26.980Z,11.90
2023-03-07T08:14:59.697Z,13.30
2023-03-07T08:17:32.070Z,11.70
2023-03-07T08:20:08.594Z,12.38
2023-03-07T08:22:40.763Z,12.07
2023-03-07T08:25:18.734Z,10.43
2023-03-07T08:27:55.253Z,11.27
2023-03-07T08:30:30.112Z,11.10
2023-03-07T08:33:02.238Z,10.23
2023-03-07T08:35:34.507Z,11.10
2023-03-07T08:38:06.521Z,10.35
2023-03-07T08:40:38.802Z,10.15
2023-03-07T08:43:11.252Z,11.55
2023-03-07T08:45:43.761Z,9.88
2023-03-07T08:48:16.043Z,10.45
2023-03-07T08:50:48.408Z,10.05
2023-03-07T08:53:20.998Z,11.35
2023-03-07T08:55:53.227Z,10.47
2023-03-07T08:58:25.358Z,11.13
2023-03-07T09:00:58.818Z,10.60
2023-03-07T09:03:31.056Z,9.55
2023-03-07T09:06:04.042Z,9.85
2023-03-07T09:08:36.250Z,10.75
2023-03-07T09:11:08.870Z,9.65
2023-03-07T09:13:51.406Z,11.27
2023-03-07T09:16:25.223Z,10.52
2023-03-07T09:18:57.418Z,10.57
2023-03-07T09:21:29.814Z,11.05
2023-03-07T09:24:02.081Z,10.85
2023-03-07T09:26:34.705Z,9.98
2023-03-07T09:29:07.570Z,11.43
2023-03-07T09:31:41.653Z,10.02
2023-03-07T09:34:14.064Z,11.10
2023-03-07T09:36:46.148Z,11.32
2023-03-07T09:39:18.256Z,11.52
2023-03-07T09:42:03.041Z,10.80
2023-03-07T09:45:09.779Z,10.75
2023-03-07T09:48:32.961Z,10.43
2023-03-07T09:51:31.693Z,11.80
2023-03-07T09:54:18.409Z,11.00
2023-03-07T09:56:55.280Z,10.25
2023-03-07T09:59:39.031Z,11.57
2023-03-07T10:02:32.861Z,10.15
2023-03-07T10:05:23.206Z,10.55
2023-03-07T10:07:55.757Z,11.40
2023-03-07T10:10:36.703Z,11.07
2023-03-07T10:13:26.048Z,11.40
2023-03-07T10:16:16.252Z,11.80
2023-03-07T10:19:23.920Z,11.40
2023-03-07T10:22:07.919Z,11.95
2023-03-07T10:25:00.832Z,9.15
2023-03-07T10:27:33.106Z,10.75
2023-03-07T10:30:18.705Z,11.50
2023-03-07T10:32:55.700Z,11.93
2023-03-07T10:35:41.313Z,10.80
2023-03-07T10:38:28.652Z,12.23
2023-03-07T10:41:11.564Z,10.93
2023-03-07T10:43:46.048Z,12.82
2023-03-07T10:46:26.471Z,11.73
2023-03-07T10:49:10.486Z,12.07
2023-03-07T10:52:06.792Z,11.90
2023-03-07T10:54:39.559Z,10.40
2023-03-07T10:57:16.989Z,10.68
2023-03-07T10:59:50.220Z,11.57
2023-03-07T11:02:26.063Z,11.82
2023-03-07T11:04:58.703Z,11.07
2023-03-07T11:07:34.570Z,11.85
2023-03-07T11:10:32.634Z,9.70
2023-03-07T11:13:19.492Z,12.05
2023-03-07T11:16:00.141Z,10.63
2023-03-07T11:18:42.958Z,11.52
2023-03-07T11:21:36.082Z,11.40
2023-03-07T11:24:28.769Z,11.82
2023-03-07T11:27:01.133Z,11.43
2023-03-07T11:29:34.926Z,11.63
2023-03-07T11:32:20.510Z,11.90
2023-03-07T11:35:06.929Z,12.18
2023-03-07T11:37:49.754Z,12.82
2023-03-07T11:40:53.452Z,11.15
2023-03-07T11:43:49.430Z,10.38
2023-03-07T11:46:32.606Z,11.32
2023-03-07T11:49:04.879Z,10.55
2023-03-07T11:51:45.648Z,8.13
2023-03-07T11:54:31.979Z,11.13
2023-03-07T11:57:18.856Z,12.35
2023-03-07T12:00:25.277Z,10.75
2023-03-07T12:03:18.805Z,11.60
2023-03-07T12:06:20.288Z,11.35
2023-03-07T12:09:16.733Z,11.02
2023-03-07T12:12:00.233Z,10.30
2023-03-07T12:15:21.987Z,11.45
2023-03-07T12:18:24.827Z,12.10
2023-03-07T12:21:28.646Z,12.50
2023-03-07T12:24:17.741Z,11.60
2023-03-07T12:26:57.937Z,12.10
2023-03-07T12:29:36.777Z,12.32
2023-03-07T12:32:18.576Z,10.82
2023-03-07T12:35:17.709Z,12.25
2023-03-07T12:38:01.199Z,12.32
2023-03-07T12:40:47.290Z,12.77
2023-03-07T12:43:27.157Z,12.55
2023-03-07T12:46:11.442Z,12.25
2023-03-07T12:48:49.597Z,15.75
2023-03-07T12:51:31.561Z,13.18
2023-03-07T12:54:15.125Z,12.52
2023-03-07T12:56:54.467Z,12.95
2023-03-07T12:59:27.845Z,13.10
2023-03-07T13:02:06.313Z,12.80
2023-03-07T13:04:42.777Z,12.38
2023-03-07T13:07:26.179Z,13.50
2023-03-07T13:10:00.851Z,11.32
2023-03-07T13:12:37.662Z,13.07
2023-03-07T13:15:19.192Z,10.70
2023-03-07T13:17:51.184Z,12.13
2023-03-07T13:20:29.153Z,12.45
2023-03-07T13:23:14.675Z,9.00
2023-03-07T13:25:56.178Z,10.98
2023-03-07T13:28:36.775Z,13.10
2023-03-07T13:31:16.320Z,11.52
2023-03-07T13:33:48.561Z,13.18
2023-03-07T13:36:35.979Z,12.70
2023-03-07T13:39:39.751Z,12.60
2023-03-07T13:42:47.071Z,11.97
2023-03-07T13:45:37.789Z,12.30
2023-03-07T13:48:20.652Z,11.50
2023-03-07T13:50:53.009Z,12.57
2023-03-07T13:53:28.134Z,12.77
2023-03-07T13:56:09.527Z,12.18
2023-03-07T13:58:52.543Z,11.75
2023-03-07T14:01:40.946Z,12.73
2023-03-07T14:04:17.029Z,12.45
2023-03-07T14:06:57.024Z,12.40
2023-03-07T14:09:40.040Z,12.75
2023-03-07T14:12:27.562Z,11.97
2023-03-07T14:15:08.776Z,11.38
2023-03-07T14:17:43.910Z,11.35
2023-03-07T14:20:24.496Z,11.57
2023-03-07T14:23:12.074Z,11.70
2023-03-07T14:25:52.252Z,10.90
2023-03-07T14:28:27.669Z,11.85
2023-03-07T14:31:05.096Z,11.13
2023-03-07T14:33:39.461Z,11.48
2023-03-07T14:36:24.282Z,12.25
2023-03-07T14:38:59.578Z,11.88
2023-03-07T14:42:04.740Z,11.75
2023-03-07T14:45:11.797Z,11.60
2023-03-07T14:48:03.585Z,9.80
2023-03-07T14:50:40.011Z,9.45
2023-03-07T14:53:15.507Z,11.55
2023-03-07T14:55:50.390Z,11.38
2023-03-07T14:58:27.095Z,10.85
2023-03-07T15:01:06.669Z,10.88
2023-03-07T15:03:49.312Z,11.75
2023-03-07T15:06:25.820Z,10.73
2023-03-07T15:09:01.349Z,11.80
2023-03-07T15:11:37.333Z,12.18
2023-03-07T15:14:20.082Z,10.38
2023-03-07T15:16:57.584Z,11.00
2023-03-07T15:19:43.684Z,10.90
2023-03-07T15:22:29.140Z,11.27
2023-03-07T15:25:01.301Z,10.30
2023-03-07T15:27:34.241Z,10.55
2023-03-07T15:30:27.520Z,11.55
2023-03-07T15:33:11.401Z,11.95
2023-03-07T15:38:22.441Z,12.10
2023-03-07T15:40:55.230Z,10.27
2023-03-07T15:43:34.775Z,12.73
2023-03-07T15:46:15.558Z,11.77
2023-03-07T15:48:53.480Z,12.52
2023-03-07T15:51:34.034Z,13.88
2023-03-07T15:54:27.650Z,11.45
2023-03-07T15:57:04.919Z,9.15
2023-03-07T15:59:54.485Z,12.65
2023-03-07T16:02:41.553Z,11.07
2023-03-07T16:05:23.617Z,12.35
2023-03-07T16:07:58.034Z,12.07
2023-03-07T16:10:32.949Z,11.25
2023-03-07T16:13:05.093Z,13.10
2023-03-07T16:15:37.148Z,14.25
2023-03-07T16:18:09.190Z,13.10
2023-03-07T16:20:41.261Z,14.13
2023-03-07T16:23:14.242Z,16.95
2023-03-07T16:25:46.497Z,12.48
2023-03-07T16:28:18.516Z,12.73
2023-03-07T16:30:50.644Z,14.35
2023-03-07T16:33:22.806Z,15.85
2023-03-07T16:35:55.450Z,11.97
2023-03-07T16:38:27.424Z,11.65
2023-03-07T16:41:01.630Z,14.23
2023-03-07T16:43:35.136Z,12.10
2023-03-07T16:48:44.463Z,11.63
2023-03-07T16:51:22.412Z,10.93
2023-03-07T16:53:56.808Z,10.43
2023-03-07T16:56:32.802Z,11.85
2023-03-07T16:59:06.442Z,11.80
2023-03-07T17:01:39.201Z,11.30
2023-03-07T17:04:11.746Z,10.35
2023-03-07T17:06:44.570Z,10.57
2023-03-07T17:09:16.741Z,11.82
2023-03-07T17:11:51.566Z,11.32
2023-03-07T17:14:23.695Z,11.95
2023-03-07T17:16:56.134Z,10.90
2023-03-07T17:19:30.992Z,10.68
2023-03-07T17:22:03.599Z,10.07
2023-03-07T17:24:35.911Z,11.45
2023-03-07T17:27:09.585Z,12.52
2023-03-07T17:29:45.592Z,10.35
2023-03-07T17:32:19.057Z,12.02
2023-03-07T17:34:51.404Z,10.80
2023-03-07T17:37:24.006Z,10.63
2023-03-07T17:39:56.492Z,11.20
2023-03-07T17:42:28.761Z,11.10
2023-03-07T17:45:00.835Z,10.93
2023-03-07T17:47:33.631Z,11.77
2023-03-07T17:50:08.034Z,10.82
2023-03-07T17:52:40.392Z,12.68
2023-03-07T17:55:15.715Z,11.15
2023-03-07T17:57:48.087Z,11.80
2023-03-07T18:00:21.298Z,12.70
2023-03-07T18:02:53.770Z,12.63
2023-03-07T18:05:26.309Z,14.40
2023-03-07T18:07:58.776Z,11.75
2023-03-07T18:10:31.041Z,11.73
2023-03-07T18:13:04.200Z,12.48
2023-03-07T18:15:36.425Z,11.88
2023-03-07T18:18:08.995Z,12.07
2023-03-07T18:20:44.149Z,11.98
2023-03-07T18:23:16.515Z,13.73
2023-03-07T18:25:56.909Z,13.13
2023-03-07T18:28:29.939Z,13.73
2023-03-07T18:31:07.822Z,14.10
2023-03-07T18:33:40.817Z,14.85
2023-03-07T18:36:15.538Z,14.35
2023-03-07T18:38:48.262Z,13.60
2023-03-07T18:41:26.025Z,16.17
2023-03-07T18:43:59.010Z,14.60
2023-03-07T18:46:32.590Z,13.95
2023-03-07T18:51:37.283Z,12.90
2023-03-07T18:54:10.232Z,15.73
2023-03-07T18:56:46.148Z,14.07
2023-03-07T18:59:18.602Z,14.02
2023-03-07T19:01:51.102Z,14.25
2023-03-07T19:04:23.804Z,14.10
2023-03-07T19:06:58.185Z,13.90
2023-03-07T19:09:31.959Z,13.90
2023-03-07T19:12:04.631Z,13.27
2023-03-07T19:14:37.989Z,13.57
2023-03-07T19:17:10.809Z,14.70
2023-03-07T19:19:42.859Z,14.23
2023-03-07T19:22:15.318Z,14.57
2023-03-07T19:24:47.747Z,14.77
2023-03-07T19:27:19.790Z,14.85
2023-03-07T19:29:54.482Z,15.80
2023-03-07T19:32:29.287Z,15.15
2023-03-07T19:35:01.339Z,15.35
2023-03-07T19:37:36.894Z,15.80
2023-03-07T19:40:09.651Z,16.52
2023-03-07T19:42:42.333Z,15.65
2023-03-07T19:45:14.492Z,16.52
2023-03-07T19:47:46.968Z,15.88
2023-03-07T19:50:19.260Z,17.48
2023-03-07T19:52:51.912Z,17.90
2023-03-07T19:55:25.316Z,18.90
2023-03-07T19:57:57.431Z,18.52
2023-03-07T20:00:29.434Z,18.52
2023-03-07T20:03:01.498Z,18.58
2023-03-07T20:05:33.675Z,18.25
2023-03-07T20:08:05.710Z,17.77
2023-03-07T20:10:39.205Z,17.88
2023-03-07T20:13:13.603Z,18.25
2023-03-07T20:15:53.993Z,18.10
2023-03-07T20:18:25.950Z,18.30
2023-03-07T20:21:06.094Z,17.48
2023-03-07T20:23:38.752Z,17.80
2023-03-07T20:26:14.151Z,16.63
2023-03-07T20:28:46.680Z,15.93
2023-03-07T20:31:20.156Z,17.43
2023-03-07T20:33:53.204Z,15.40
2023-03-07T20:36:28.179Z,17.20
2023-03-07T20:39:03.866Z,15.95
2023-03-07T20:41:36.182Z,16.92
2023-03-07T20:44:11.556Z,15.13
2023-03-07T20:46:43.657Z,15.45
2023-03-07T20:49:17.571Z,14.80
2023-03-07T20:51:50.648Z,15.38
2023-03-07T20:54:22.842Z,15.52
2023-03-07T20:56:55.324Z,15.65
2023-03-07T20:59:27.511Z,17.23
2023-03-07T21:01:59.939Z,16.58
2023-03-07T21:04:32.857Z,15.73
2023-03-07T21:07:05.447Z,13.20
2023-03-07T21:09:37.468Z,16.27
2023-03-07T21:12:11.519Z,18.30
2023-03-07T21:14:44.171Z,17.85
2023-03-07T21:17:16.263Z,17.47
2023-03-07T21:19:48.975Z,15.40
2023-03-07T21:22:21.005Z,17.60
2023-03-07T21:24:53.012Z,16.67
2023-03-07T21:27:25.045Z,15.60
2023-03-07T21:29:57.040Z,15.27
2023-03-07T21:32:29.134Z,19.77
2023-03-07T21:35:01.511Z,16.08
2023-03-07T21:37:35.348Z,15.85
2023-03-07T21:40:07.901Z,18.10
2023-03-07T21:42:40.016Z,15.10
2023-03-07T21:45:12.556Z,18.30
2023-03-07T21:47:45.586Z,24.27
2023-03-07T21:50:17.856Z,18.58
2023-03-07T21:52:50.270Z,25.73
2023-03-07T21:55:24.920Z,19.10
2023-03-07T21:57:56.892Z,31.60
2023-03-07T22:00:30.268Z,17.20
2023-03-07T22:03:02.507Z,31.77
2023-03-07T22:05:38.389Z,20.42
2023-03-07T22:08:11.371Z,21.75
2023-03-07T22:10:44.638Z,21.85
2023-03-07T22:13:16.647Z,16.13
2023-03-07T22:15:48.631Z,34.40
2023-03-07T22:18:20.583Z,16.13
2023-03-07T22:20:52.799Z,17.95
2023-03-07T22:23:28.268Z,19.10
2023-03-07T22:26:04.383Z,17.33
2023-03-07T22:28:37.179Z,17.60
2023-03-07T22:33:43.732Z,14.38
2023-03-07T22:36:16.116Z,15.00
2023-03-07T22:38:52.711Z,15.48
2023-03-07T22:41:25.417Z,18.35
2023-03-07T22:43:57.438Z,15.30
2023-03-07T22:46:29.458Z,17.80
2023-03-07T22:49:01.518Z,16.77
2023-03-07T22:51:35.517Z,16.40
2023-03-07T22:54:08.858Z,15.52
2023-03-07T22:56:40.835Z,14.88
2023-03-07T22:59:12.824Z,14.90
2023-03-07T23:01:45.067Z,16.08
2023-03-07T23:04:17.121Z,17.02
2023-03-07T23:06:49.087Z,16.55
2023-03-07T23:09:21.272Z,14.70
2023-03-07T23:11:53.609Z,15.77
2023-03-07T23:14:26.082Z,17.02
2023-03-07T23:16:58.237Z,16.75
2023-03-07T23:19:31.618Z,17.58
2023-03-07T23:22:04.210Z,15.75
2023-03-07T23:24:36.564Z,17.08
2023-03-07T23:27:08.863Z,15.82
2023-03-07T23:29:41.234Z,15.07
2023-03-07T23:32:13.716Z,13.67
2023-03-07T23:34:46.568Z,14.05
2023-03-07T23:37:18.568Z,15.10
2023-03-07T23:39:51.333Z,14.85
2023-03-07T23:42:23.442Z,15.13
2023-03-07T23:44:56.103Z,14.23
2023-03-07T23:47:28.086Z,13.83
2023-03-07T23:50:00.428Z,13.98
2023-03-07T23:52:32.941Z,13.30
2023-03-07T23:55:09.118Z,12.25
2023-03-07T23:57:41.650Z,12.25
